sensor_id;sensor_type;location;lat;lon;timestamp;pressure;altitude;pressure_sealevel;temperature;humidity
71239;BME280;61342;51.442;7.370;2022-08-19T00:00:26;99764.03;;;21.95;69.15
71239;BME280;61342;51.442;7.370;2022-08-19T00:01:28;99761.72;;;21.93;69.60
71239;BME280;61342;51.442;7.370;2022-08-19T00:02:29;99761.72;;;21.93;69.94
71239;BME280;61342;51.442;7.370;2022-08-19T00:03:29;99757.41;;;21.94;69.45
71239;BME280;61342;51.442;7.370;2022-08-19T00:04:33;99766.34;;;21.96;69.83
71239;BME280;61342;51.442;7.370;2022-08-19T00:05:36;99765.84;;;22.00;69.36
71239;BME280;61342;51.442;7.370;2022-08-19T00:06:37;99765.41;;;22.03;69.56
71239;BME280;61342;51.442;7.370;2022-08-19T00:07:38;99772.00;;;22.03;69.82
71239;BME280;61342;51.442;7.370;2022-08-19T00:08:39;99764.75;;;22.04;69.82
71239;BME280;61342;51.442;7.370;2022-08-19T00:09:39;99768.78;;;22.09;69.66
71239;BME280;61342;51.442;7.370;2022-08-19T00:10:39;99772.47;;;22.09;69.65
71239;BME280;61342;51.442;7.370;2022-08-19T00:11:41;99768.63;;;22.07;69.26
71239;BME280;61342;51.442;7.370;2022-08-19T00:12:42;99776.66;;;22.06;69.22
71239;BME280;61342;51.442;7.370;2022-08-19T00:13:42;99769.06;;;22.03;69.46
71239;BME280;61342;51.442;7.370;2022-08-19T00:14:43;99778.50;;;22.02;69.54
71239;BME280;61342;51.442;7.370;2022-08-19T00:15:43;99772.34;;;21.98;69.76
71239;BME280;61342;51.442;7.370;2022-08-19T00:16:46;99762.97;;;21.90;69.47
71239;BME280;61342;51.442;7.370;2022-08-19T00:17:47;99768.97;;;21.92;69.70
71239;BME280;61342;51.442;7.370;2022-08-19T00:18:48;99759.13;;;21.88;69.46
71239;BME280;61342;51.442;7.370;2022-08-19T00:19:48;99773.47;;;21.84;69.53
71239;BME280;61342;51.442;7.370;2022-08-19T00:20:49;99757.47;;;21.75;70.17
71239;BME280;61342;51.442;7.370;2022-08-19T00:21:50;99760.84;;;21.72;69.94
71239;BME280;61342;51.442;7.370;2022-08-19T00:22:50;99765.78;;;21.69;70.21
71239;BME280;61342;51.442;7.370;2022-08-19T00:23:53;99772.13;;;21.66;70.58
71239;BME280;61342;51.442;7.370;2022-08-19T00:24:53;99764.56;;;21.63;70.61
71239;BME280;61342;51.442;7.370;2022-08-19T00:25:54;99759.34;;;21.52;71.11
71239;BME280;61342;51.442;7.370;2022-08-19T00:26:55;99775.50;;;21.62;71.44
71239;BME280;61342;51.442;7.370;2022-08-19T00:27:57;99767.50;;;21.63;71.13
71239;BME280;61342;51.442;7.370;2022-08-19T00:28:58;99773.34;;;21.63;71.60
71239;BME280;61342;51.442;7.370;2022-08-19T00:30:00;99774.44;;;21.67;71.98
71239;BME280;61342;51.442;7.370;2022-08-19T00:31:05;99773.47;;;21.74;71.36
71239;BME280;61342;51.442;7.370;2022-08-19T00:32:06;99781.63;;;21.76;71.00
71239;BME280;61342;51.442;7.370;2022-08-19T00:33:06;99771.78;;;21.81;71.37
71239;BME280;61342;51.442;7.370;2022-08-19T00:34:08;99761.78;;;21.74;70.75
71239;BME280;61342;51.442;7.370;2022-08-19T00:35:09;99760.41;;;21.75;70.82
71239;BME280;61342;51.442;7.370;2022-08-19T00:36:10;99770.22;;;21.80;70.65
71239;BME280;61342;51.442;7.370;2022-08-19T00:37:10;99770.22;;;21.80;71.11
71239;BME280;61342;51.442;7.370;2022-08-19T00:38:11;99767.16;;;21.78;70.72
71239;BME280;61342;51.442;7.370;2022-08-19T00:39:12;99773.47;;;21.74;71.07
71239;BME280;61342;51.442;7.370;2022-08-19T00:40:13;99767.97;;;21.69;71.10
71239;BME280;61342;51.442;7.370;2022-08-19T00:41:15;99773.50;;;21.65;71.13
71239;BME280;61342;51.442;7.370;2022-08-19T00:42:17;99771.81;;;21.62;70.85
71239;BME280;61342;51.442;7.370;2022-08-19T00:43:20;99774.44;;;21.58;71.34
71239;BME280;61342;51.442;7.370;2022-08-19T00:44:24;99767.22;;;21.49;71.08
71239;BME280;61342;51.442;7.370;2022-08-19T00:45:27;99769.97;;;21.47;71.54
71239;BME280;61342;51.442;7.370;2022-08-19T00:46:28;99763.03;;;21.43;71.45
71239;BME280;61342;51.442;7.370;2022-08-19T00:47:29;99765.34;;;21.35;71.27
71239;BME280;61342;51.442;7.370;2022-08-19T00:48:30;99767.34;;;21.33;71.85
71239;BME280;61342;51.442;7.370;2022-08-19T00:49:37;99768.75;;;21.32;71.63
71239;BME280;61342;51.442;7.370;2022-08-19T00:50:41;99763.50;;;21.30;72.05
71239;BME280;61342;51.442;7.370;2022-08-19T00:51:45;99769.34;;;21.30;72.36
71239;BME280;61342;51.442;7.370;2022-08-19T00:52:48;99768.88;;;21.34;72.34
71239;BME280;61342;51.442;7.370;2022-08-19T00:53:50;99775.66;;;21.36;72.11
71239;BME280;61342;51.442;7.370;2022-08-19T00:54:51;99759.81;;;21.39;72.44
71239;BME280;61342;51.442;7.370;2022-08-19T00:55:55;99764.88;;;21.39;72.18
71239;BME280;61342;51.442;7.370;2022-08-19T00:56:58;99761.66;;;21.44;72.23
71239;BME280;61342;51.442;7.370;2022-08-19T00:58:02;99753.38;;;21.50;71.36
71239;BME280;61342;51.442;7.370;2022-08-19T00:59:05;99754.13;;;21.50;72.28
71239;BME280;61342;51.442;7.370;2022-08-19T01:00:12;99750.56;;;21.52;71.45
71239;BME280;61342;51.442;7.370;2022-08-19T01:01:13;99755.34;;;21.57;71.47
71239;BME280;61342;51.442;7.370;2022-08-19T01:02:16;99759.81;;;21.58;71.61
71239;BME280;61342;51.442;7.370;2022-08-19T01:03:19;99748.28;;;21.50;71.29
71239;BME280;61342;51.442;7.370;2022-08-19T01:04:20;99749.81;;;21.51;71.20
71239;BME280;61342;51.442;7.370;2022-08-19T01:05:24;99762.16;;;21.50;71.28
71239;BME280;61342;51.442;7.370;2022-08-19T01:06:25;99760.41;;;21.47;70.99
71239;BME280;61342;51.442;7.370;2022-08-19T01:07:26;99757.03;;;21.41;72.03
71239;BME280;61342;51.442;7.370;2022-08-19T01:08:26;99757.50;;;21.38;71.23
71239;BME280;61342;51.442;7.370;2022-08-19T01:09:27;99759.34;;;21.33;71.63
71239;BME280;61342;51.442;7.370;2022-08-19T01:10:29;99761.19;;;21.29;71.73
71239;BME280;61342;51.442;7.370;2022-08-19T01:11:34;99763.19;;;21.26;72.06
71239;BME280;61342;51.442;7.370;2022-08-19T01:12:35;99768.72;;;21.22;71.67
71239;BME280;61342;51.442;7.370;2022-08-19T01:13:36;99765.50;;;21.18;71.95
71239;BME280;61342;51.442;7.370;2022-08-19T01:14:39;99765.50;;;21.18;71.78
71239;BME280;61342;51.442;7.370;2022-08-19T01:15:42;99764.75;;;21.18;72.40
71239;BME280;61342;51.442;7.370;2022-08-19T01:16:45;99759.66;;;21.18;72.25
71239;BME280;61342;51.442;7.370;2022-08-19T01:17:47;99772.28;;;21.21;72.50
71239;BME280;61342;51.442;7.370;2022-08-19T01:18:48;99760.88;;;21.25;72.20
71239;BME280;61342;51.442;7.370;2022-08-19T01:19:49;99755.34;;;21.19;71.98
71239;BME280;61342;51.442;7.370;2022-08-19T01:20:50;99767.84;;;21.29;71.90
71239;BME280;61342;51.442;7.370;2022-08-19T01:22:06;99760.25;;;21.26;71.69
71239;BME280;61342;51.442;7.370;2022-08-19T01:23:08;99769.34;;;21.30;72.12
71239;BME280;61342;51.442;7.370;2022-08-19T01:24:09;99767.84;;;21.29;71.58
71239;BME280;61342;51.442;7.370;2022-08-19T01:25:09;99768.28;;;21.26;71.71
71239;BME280;61342;51.442;7.370;2022-08-19T01:26:28;99762.00;;;21.20;71.13
71239;BME280;61342;51.442;7.370;2022-08-19T01:27:37;99763.38;;;21.19;72.03
71239;BME280;61342;51.442;7.370;2022-08-19T01:28:39;99764.00;;;21.17;71.65
71239;BME280;61342;51.442;7.370;2022-08-19T01:29:41;99766.59;;;21.13;71.98
71239;BME280;61342;51.442;7.370;2022-08-19T01:30:42;99756.28;;;21.03;71.88
71239;BME280;61342;51.442;7.370;2022-08-19T01:31:43;99766.00;;;21.05;72.20
71239;BME280;61342;51.442;7.370;2022-08-19T01:32:44;99765.69;;;21.01;71.86
71239;BME280;61342;51.442;7.370;2022-08-19T01:33:45;99760.91;;;20.96;72.61
71239;BME280;61342;51.442;7.370;2022-08-19T01:34:46;99754.25;;;20.86;72.33
71239;BME280;61342;51.442;7.370;2022-08-19T01:35:47;99753.94;;;20.83;73.05
71239;BME280;61342;51.442;7.370;2022-08-19T01:36:51;99744.72;;;20.77;72.62
71239;BME280;61342;51.442;7.370;2022-08-19T01:37:56;99754.44;;;20.79;72.78
71239;BME280;61342;51.442;7.370;2022-08-19T01:38:58;99745.94;;;20.74;72.87
71239;BME280;61342;51.442;7.370;2022-08-19T01:39:59;99754.25;;;20.77;73.48
71239;BME280;61342;51.442;7.370;2022-08-19T01:41:00;99753.63;;;20.79;73.06
71239;BME280;61342;51.442;7.370;2022-08-19T01:42:00;99753.03;;;20.80;73.80
71239;BME280;61342;51.442;7.370;2022-08-19T01:43:04;99737.16;;;20.74;73.87
71239;BME280;61342;51.442;7.370;2022-08-19T01:44:06;99748.41;;;20.86;73.79
71239;BME280;61342;51.442;7.370;2022-08-19T01:45:07;99747.34;;;20.91;73.46
71239;BME280;61342;51.442;7.370;2022-08-19T01:46:08;99744.75;;;20.95;73.35
71239;BME280;61342;51.442;7.370;2022-08-19T01:47:08;99742.75;;;20.98;73.68
71239;BME280;61342;51.442;7.370;2022-08-19T01:48:12;99749.34;;;20.98;73.05
71239;BME280;61342;51.442;7.370;2022-08-19T01:49:13;99751.50;;;20.98;73.27
71239;BME280;61342;51.442;7.370;2022-08-19T01:50:14;99743.50;;;20.98;73.29
71239;BME280;61342;51.442;7.370;2022-08-19T01:51:14;99747.22;;;20.99;73.48
71239;BME280;61342;51.442;7.370;2022-08-19T01:52:15;99749.34;;;20.98;72.96
71239;BME280;61342;51.442;7.370;2022-08-19T01:53:15;99746.41;;;20.89;73.23
71239;BME280;61342;51.442;7.370;2022-08-19T01:54:18;99751.81;;;20.92;73.13
71239;BME280;61342;51.442;7.370;2022-08-19T01:55:20;99761.78;;;20.89;72.98
71239;BME280;61342;51.442;7.370;2022-08-19T01:56:21;99755.50;;;20.84;73.04
71239;BME280;61342;51.442;7.370;2022-08-19T01:57:21;99753.03;;;20.80;73.21
71239;BME280;61342;51.442;7.370;2022-08-19T01:58:27;99749.78;;;20.76;73.67
71239;BME280;61342;51.442;7.370;2022-08-19T01:59:31;99754.34;;;20.70;73.56
71239;BME280;61342;51.442;7.370;2022-08-19T02:00:32;99750.81;;;20.62;73.76
71239;BME280;61342;51.442;7.370;2022-08-19T02:01:33;99751.59;;;20.62;74.13
71239;BME280;61342;51.442;7.370;2022-08-19T02:02:34;99747.75;;;20.60;73.92
71239;BME280;61342;51.442;7.370;2022-08-19T02:03:35;99745.25;;;20.56;74.09
71239;BME280;61342;51.442;7.370;2022-08-19T02:04:36;99750.50;;;20.58;74.13
71239;BME280;61342;51.442;7.370;2022-08-19T02:05:39;99747.44;;;20.56;74.23
71239;BME280;61342;51.442;7.370;2022-08-19T02:06:40;99755.13;;;20.61;74.25
71239;BME280;61342;51.442;7.370;2022-08-19T02:07:40;99749.59;;;20.65;74.58
71239;BME280;61342;51.442;7.370;2022-08-19T02:08:41;99744.97;;;20.62;74.23
71239;BME280;61342;51.442;7.370;2022-08-19T02:09:42;99752.97;;;20.71;74.08
71239;BME280;61342;51.442;7.370;2022-08-19T02:10:43;99745.94;;;20.74;73.78
71239;BME280;61342;51.442;7.370;2022-08-19T02:11:44;99743.31;;;20.78;74.18
71239;BME280;61342;51.442;7.370;2022-08-19T02:12:44;99727.31;;;20.69;73.83
71239;BME280;61342;51.442;7.370;2022-08-19T02:13:45;99738.72;;;20.75;73.79
71239;BME280;61342;51.442;7.370;2022-08-19T02:14:46;99739.81;;;20.79;73.65
71239;BME280;61342;51.442;7.370;2022-08-19T02:15:46;99729.59;;;20.71;73.71
71239;BME280;61342;51.442;7.370;2022-08-19T02:16:47;99737.47;;;20.78;74.01
71239;BME280;61342;51.442;7.370;2022-08-19T02:17:47;99732.72;;;20.73;73.80
71239;BME280;61342;51.442;7.370;2022-08-19T02:18:48;99718.97;;;20.66;74.04
71239;BME280;61342;51.442;7.370;2022-08-19T02:19:49;99730.41;;;20.71;74.22
71239;BME280;61342;51.442;7.370;2022-08-19T02:20:49;99731.59;;;20.68;73.89
71239;BME280;61342;51.442;7.370;2022-08-19T02:21:49;99734.81;;;20.63;73.82
71239;BME280;61342;51.442;7.370;2022-08-19T02:22:50;99722.94;;;20.51;73.65
71239;BME280;61342;51.442;7.370;2022-08-19T02:23:51;99731.28;;;20.55;73.59
71239;BME280;61342;51.442;7.370;2022-08-19T02:24:52;99746.94;;;20.50;73.62
71239;BME280;61342;51.442;7.370;2022-08-19T02:25:53;99739.56;;;20.49;73.97
71239;BME280;61342;51.442;7.370;2022-08-19T02:26:53;99746.00;;;20.47;74.02
71239;BME280;61342;51.442;7.370;2022-08-19T02:27:54;99746.47;;;20.44;73.92
71239;BME280;61342;51.442;7.370;2022-08-19T02:28:55;99749.53;;;20.46;74.52
71239;BME280;61342;51.442;7.370;2022-08-19T02:29:56;99754.00;;;20.47;74.46
71239;BME280;61342;51.442;7.370;2022-08-19T02:30:56;99754.16;;;20.49;74.54
71239;BME280;61342;51.442;7.370;2022-08-19T02:31:56;99748.66;;;20.53;74.59
71239;BME280;61342;51.442;7.370;2022-08-19T02:32:57;99742.66;;;20.51;73.88
71239;BME280;61342;51.442;7.370;2022-08-19T02:33:58;99740.03;;;20.55;74.38
71239;BME280;61342;51.442;7.370;2022-08-19T02:34:58;99740.66;;;20.63;74.74
71239;BME280;61342;51.442;7.370;2022-08-19T02:35:58;99743.75;;;20.65;74.28
71239;BME280;61342;51.442;7.370;2022-08-19T02:36:59;99746.22;;;20.68;74.15
71239;BME280;61342;51.442;7.370;2022-08-19T02:37:59;99749.91;;;20.69;74.19
71239;BME280;61342;51.442;7.370;2022-08-19T02:39:19;99745.44;;;20.68;73.99
71239;BME280;61342;51.442;7.370;2022-08-19T02:40:19;99743.16;;;20.66;74.13
71239;BME280;61342;51.442;7.370;2022-08-19T02:41:24;99741.28;;;20.61;73.55
71239;BME280;61342;51.442;7.370;2022-08-19T02:42:25;99737.59;;;20.61;74.13
71239;BME280;61342;51.442;7.370;2022-08-19T02:43:27;99740.97;;;20.57;73.83
71239;BME280;61342;51.442;7.370;2022-08-19T02:44:28;99739.56;;;20.49;73.71
71239;BME280;61342;51.442;7.370;2022-08-19T02:45:36;99733.25;;;20.43;73.97
71239;BME280;61342;51.442;7.370;2022-08-19T02:46:37;99751.09;;;20.47;73.84
71239;BME280;61342;51.442;7.370;2022-08-19T02:47:38;99743.56;;;20.44;74.41
71239;BME280;61342;51.442;7.370;2022-08-19T02:48:38;99743.25;;;20.40;73.83
71239;BME280;61342;51.442;7.370;2022-08-19T02:49:38;99744.28;;;20.35;74.19
71239;BME280;61342;51.442;7.370;2022-08-19T02:50:40;99747.81;;;20.33;74.36
71239;BME280;61342;51.442;7.370;2022-08-19T02:51:42;99747.22;;;20.35;74.77
71239;BME280;61342;51.442;7.370;2022-08-19T02:52:43;99738.13;;;20.31;74.53
71239;BME280;61342;51.442;7.370;2022-08-19T02:53:45;99754.00;;;20.37;74.95
71239;BME280;61342;51.442;7.370;2022-08-19T02:54:46;99747.53;;;20.39;75.14
71239;BME280;61342;51.442;7.370;2022-08-19T02:55:47;99753.84;;;20.45;75.06
71239;BME280;61342;51.442;7.370;2022-08-19T02:56:47;99740.47;;;20.42;74.72
71239;BME280;61342;51.442;7.370;2022-08-19T02:57:47;99751.41;;;20.51;74.40
71239;BME280;61342;51.442;7.370;2022-08-19T02:58:48;99735.44;;;20.52;74.74
71239;BME280;61342;51.442;7.370;2022-08-19T02:59:49;99743.88;;;20.57;74.69
71239;BME280;61342;51.442;7.370;2022-08-19T03:00:54;99746.19;;;20.59;74.50
71239;BME280;61342;51.442;7.370;2022-08-19T03:01:55;99743.88;;;20.57;74.09
71239;BME280;61342;51.442;7.370;2022-08-19T03:02:55;99752.03;;;20.59;73.91
71239;BME280;61342;51.442;7.370;2022-08-19T03:03:58;99754.03;;;20.56;74.24
71239;BME280;61342;51.442;7.370;2022-08-19T03:04:59;99739.72;;;20.51;73.82
71239;BME280;61342;51.442;7.370;2022-08-19T03:06:07;99744.75;;;20.41;74.08
71239;BME280;61342;51.442;7.370;2022-08-19T03:07:09;99755.38;;;20.46;73.90
71239;BME280;61342;51.442;7.370;2022-08-19T03:08:10;99755.06;;;20.42;73.97
71239;BME280;61342;51.442;7.370;2022-08-19T03:09:13;99750.91;;;20.35;74.47
71239;BME280;61342;51.442;7.370;2022-08-19T03:10:13;99757.19;;;20.32;74.43
71239;BME280;61342;51.442;7.370;2022-08-19T03:11:20;99760.38;;;20.26;74.55
71239;BME280;61342;51.442;7.370;2022-08-19T03:12:20;99762.41;;;20.24;74.51
71239;BME280;61342;51.442;7.370;2022-08-19T03:13:21;99771.16;;;20.24;75.00
71239;BME280;61342;51.442;7.370;2022-08-19T03:14:21;99763.78;;;20.23;75.30
71239;BME280;61342;51.442;7.370;2022-08-19T03:15:23;99769.75;;;20.25;75.38
71239;BME280;61342;51.442;7.370;2022-08-19T03:16:25;99754.69;;;20.19;75.15
71239;BME280;61342;51.442;7.370;2022-08-19T03:17:26;99764.84;;;20.27;75.15
71239;BME280;61342;51.442;7.370;2022-08-19T03:18:26;99756.09;;;20.27;75.15
71239;BME280;61342;51.442;7.370;2022-08-19T03:19:27;99755.66;;;20.31;75.43
71239;BME280;61342;51.442;7.370;2022-08-19T03:20:27;99754.75;;;20.38;75.19
71239;BME280;61342;51.442;7.370;2022-08-19T03:21:30;99757.84;;;20.40;74.92
71239;BME280;61342;51.442;7.370;2022-08-19T03:22:31;99753.53;;;20.41;75.40
71239;BME280;61342;51.442;7.370;2022-08-19T03:23:31;99759.53;;;20.43;75.01
71239;BME280;61342;51.442;7.370;2022-08-19T03:24:32;99749.22;;;20.42;75.01
71239;BME280;61342;51.442;7.370;2022-08-19T03:25:37;99747.34;;;20.37;74.86
71239;BME280;61342;51.442;7.370;2022-08-19T03:26:41;99755.97;;;20.35;75.43
71239;BME280;61342;51.442;7.370;2022-08-19T03:27:42;99737.03;;;20.26;74.62
71239;BME280;61342;51.442;7.370;2022-08-19T03:28:44;99756.41;;;20.31;74.88
71239;BME280;61342;51.442;7.370;2022-08-19T03:29:44;99756.88;;;20.28;75.17
71239;BME280;61342;51.442;7.370;2022-08-19T03:31:58;99751.59;;;20.17;74.89
71239;BME280;61342;51.442;7.370;2022-08-19T03:33:00;99752.06;;;20.14;75.26
71239;BME280;61342;51.442;7.370;2022-08-19T03:34:02;99751.75;;;20.10;75.75
71239;BME280;61342;51.442;7.370;2022-08-19T03:35:03;99754.47;;;20.08;75.45
71239;BME280;61342;51.442;7.370;2022-08-19T03:36:11;99753.41;;;20.03;75.94
71239;BME280;61342;51.442;7.370;2022-08-19T03:37:12;99746.63;;;20.01;75.81
71239;BME280;61342;51.442;7.370;2022-08-19T03:38:12;99753.22;;;20.01;75.81
71239;BME280;61342;51.442;7.370;2022-08-19T03:39:13;99750.47;;;20.03;75.88
71239;BME280;61342;51.442;7.370;2022-08-19T03:40:14;99739.84;;;19.98;75.99
71239;BME280;61342;51.442;7.370;2022-08-19T03:41:17;99755.25;;;20.08;76.34
71239;BME280;61342;51.442;7.370;2022-08-19T03:42:18;99748.22;;;20.11;76.08
71239;BME280;61342;51.442;7.370;2022-08-19T03:43:19;99746.66;;;20.10;75.62
71239;BME280;61342;51.442;7.370;2022-08-19T03:44:21;99760.69;;;20.21;75.69
71239;BME280;61342;51.442;7.370;2022-08-19T03:45:23;99760.84;;;20.23;75.86
71239;BME280;61342;51.442;7.370;2022-08-19T03:46:26;99758.88;;;20.26;76.02
71239;BME280;61342;51.442;7.370;2022-08-19T03:47:26;99747.91;;;20.17;75.26
71239;BME280;61342;51.442;7.370;2022-08-19T03:48:27;99752.53;;;20.20;75.89
71239;BME280;61342;51.442;7.370;2022-08-19T03:49:29;99760.25;;;20.25;75.45
71239;BME280;61342;51.442;7.370;2022-08-19T03:50:30;99760.06;;;20.23;75.64
71239;BME280;61342;51.442;7.370;2022-08-19T03:51:34;99760.53;;;20.19;75.43
71239;BME280;61342;51.442;7.370;2022-08-19T03:52:35;99756.50;;;20.15;75.74
71239;BME280;61342;51.442;7.370;2022-08-19T03:53:35;99750.34;;;20.11;75.60
71239;BME280;61342;51.442;7.370;2022-08-19T03:54:37;99753.72;;;20.07;75.53
71239;BME280;61342;51.442;7.370;2022-08-19T03:55:41;99758.63;;;20.05;75.57
71239;BME280;61342;51.442;7.370;2022-08-19T03:56:43;99759.06;;;20.01;75.95
71239;BME280;61342;51.442;7.370;2022-08-19T03:57:44;99758.41;;;19.93;76.16
71239;BME280;61342;51.442;7.370;2022-08-19T03:58:46;99764.25;;;19.93;75.86
71239;BME280;61342;51.442;7.370;2022-08-19T03:59:46;99763.75;;;19.87;75.69
71239;BME280;61342;51.442;7.370;2022-08-19T04:00:47;99754.66;;;19.83;76.53
71239;BME280;61342;51.442;7.370;2022-08-19T04:01:47;99771.31;;;19.90;76.56
71239;BME280;61342;51.442;7.370;2022-08-19T04:02:47;99767.00;;;19.91;75.93
71239;BME280;61342;51.442;7.370;2022-08-19T04:03:48;99774.56;;;19.94;76.03
71239;BME280;61342;51.442;7.370;2022-08-19T04:04:53;99760.09;;;19.96;75.87
71239;BME280;61342;51.442;7.370;2022-08-19T04:05:53;99758.31;;;20.01;75.93
71239;BME280;61342;51.442;7.370;2022-08-19T04:06:54;99763.66;;;20.04;75.97
71239;BME280;61342;51.442;7.370;2022-08-19T04:07:55;99758.00;;;20.06;76.03
71239;BME280;61342;51.442;7.370;2022-08-19T04:09:00;99758.16;;;20.08;76.21
71239;BME280;61342;51.442;7.370;2022-08-19T04:10:01;99754.66;;;20.10;75.86
71239;BME280;61342;51.442;7.370;2022-08-19T04:11:09;99759.09;;;20.11;75.91
71239;BME280;61342;51.442;7.370;2022-08-19T04:12:10;99764.78;;;20.09;75.49
71239;BME280;61342;51.442;7.370;2022-08-19T04:13:10;99763.09;;;20.06;75.74
71239;BME280;61342;51.442;7.370;2022-08-19T04:14:13;99764.47;;;20.05;75.41
71239;BME280;61342;51.442;7.370;2022-08-19T04:15:14;99769.38;;;20.02;75.22
71239;BME280;61342;51.442;7.370;2022-08-19T04:16:15;99763.97;;;19.99;76.00
71239;BME280;61342;51.442;7.370;2022-08-19T04:17:15;99764.84;;;19.92;75.76
71239;BME280;61342;51.442;7.370;2022-08-19T04:18:16;99768.72;;;19.94;76.04
71239;BME280;61342;51.442;7.370;2022-08-19T04:19:18;99768.38;;;19.90;75.96
71239;BME280;61342;51.442;7.370;2022-08-19T04:20:19;99769.41;;;19.85;75.64
71239;BME280;61342;51.442;7.370;2022-08-19T04:21:25;99772.00;;;19.81;76.01
71239;BME280;61342;51.442;7.370;2022-08-19T04:22:26;99767.97;;;19.77;76.46
71239;BME280;61342;51.442;7.370;2022-08-19T04:23:26;99765.66;;;19.75;75.88
71239;BME280;61342;51.442;7.370;2022-08-19T04:24:28;99760.09;;;19.70;76.43
71239;BME280;61342;51.442;7.370;2022-08-19T04:25:28;99759.22;;;19.77;76.68
71239;BME280;61342;51.442;7.370;2022-08-19T04:26:32;99761.53;;;19.78;76.80
71239;BME280;61342;51.442;7.370;2022-08-19T04:27:32;99761.53;;;19.78;76.91
71239;BME280;61342;51.442;7.370;2022-08-19T04:28:33;99764.50;;;19.88;76.42
71239;BME280;61342;51.442;7.370;2022-08-19T04:29:36;99755.25;;;19.82;76.82
71239;BME280;61342;51.442;7.370;2022-08-19T04:30:44;99757.91;;;19.87;76.43
71239;BME280;61342;51.442;7.370;2022-08-19T04:31:45;99772.56;;;19.97;76.25
71239;BME280;61342;51.442;7.370;2022-08-19T04:32:46;99770.41;;;19.97;76.48
71239;BME280;61342;51.442;7.370;2022-08-19T04:33:46;99775.31;;;19.95;76.37
71239;BME280;61342;51.442;7.370;2022-08-19T04:34:47;99781.31;;;19.97;76.14
71239;BME280;61342;51.442;7.370;2022-08-19T04:35:48;99779.94;;;19.98;76.29
71239;BME280;61342;51.442;7.370;2022-08-19T04:36:49;99786.53;;;19.98;76.16
71239;BME280;61342;51.442;7.370;2022-08-19T04:37:51;99772.66;;;19.89;76.46
71239;BME280;61342;51.442;7.370;2022-08-19T04:38:54;99790.75;;;19.88;76.51
71239;BME280;61342;51.442;7.370;2022-08-19T04:39:55;99785.13;;;19.90;76.32
71239;BME280;61342;51.442;7.370;2022-08-19T04:41:15;99791.19;;;19.84;76.36
71239;BME280;61342;51.442;7.370;2022-08-19T04:42:34;99790.72;;;19.78;77.04
71239;BME280;61342;51.442;7.370;2022-08-19T04:43:40;99786.84;;;19.76;76.42
71239;BME280;61342;51.442;7.370;2022-08-19T04:44:41;99795.28;;;19.72;76.87
71239;BME280;61342;51.442;7.370;2022-08-19T04:45:43;99785.44;;;19.67;76.95
71239;BME280;61342;51.442;7.370;2022-08-19T04:46:45;99789.72;;;19.67;76.96
71239;BME280;61342;51.442;7.370;2022-08-19T04:47:47;99790.91;;;19.64;76.58
71239;BME280;61342;51.442;7.370;2022-08-19T04:48:47;99788.00;;;19.64;76.60
71239;BME280;61342;51.442;7.370;2022-08-19T04:49:47;99781.81;;;19.60;76.72
71239;BME280;61342;51.442;7.370;2022-08-19T04:50:49;99786.47;;;19.63;77.44
71239;BME280;61342;51.442;7.370;2022-08-19T04:51:51;99790.03;;;19.70;77.16
71239;BME280;61342;51.442;7.370;2022-08-19T04:52:54;99783.00;;;19.73;76.97
71239;BME280;61342;51.442;7.370;2022-08-19T04:53:55;99787.34;;;19.82;77.33
71239;BME280;61342;51.442;7.370;2022-08-19T04:54:57;99786.91;;;19.85;77.37
71239;BME280;61342;51.442;7.370;2022-08-19T04:55:59;99788.81;;;19.90;77.29
71239;BME280;61342;51.442;7.370;2022-08-19T04:57:02;99780.22;;;19.92;76.85
71239;BME280;61342;51.442;7.370;2022-08-19T04:58:03;99786.22;;;19.94;76.99
71239;BME280;61342;51.442;7.370;2022-08-19T04:59:04;99792.38;;;19.98;76.96
71239;BME280;61342;51.442;7.370;2022-08-19T05:00:05;99801.28;;;20.00;76.67
71239;BME280;61342;51.442;7.370;2022-08-19T05:01:05;99801.13;;;19.98;76.89
71239;BME280;61342;51.442;7.370;2022-08-19T05:02:08;99799.78;;;19.99;76.51
71239;BME280;61342;51.442;7.370;2022-08-19T05:03:09;99792.22;;;19.96;77.24
71239;BME280;61342;51.442;7.370;2022-08-19T05:04:10;99800.38;;;19.98;76.88
71239;BME280;61342;51.442;7.370;2022-08-19T05:05:11;99797.28;;;19.96;76.91
71239;BME280;61342;51.442;7.370;2022-08-19T05:06:14;99788.59;;;19.88;77.08
71239;BME280;61342;51.442;7.370;2022-08-19T05:07:15;99797.56;;;19.90;76.85
71239;BME280;61342;51.442;7.370;2022-08-19T05:08:18;99785.03;;;19.80;77.15
71239;BME280;61342;51.442;7.370;2022-08-19T05:09:19;99782.09;;;19.80;77.04
71239;BME280;61342;51.442;7.370;2022-08-19T05:10:21;99796.69;;;19.80;77.72
71239;BME280;61342;51.442;7.370;2022-08-19T05:11:28;99801.00;;;19.79;77.85
71239;BME280;61342;51.442;7.370;2022-08-19T05:12:29;99797.31;;;19.79;77.60
71239;BME280;61342;51.442;7.370;2022-08-19T05:13:30;99789.00;;;19.75;77.73
71239;BME280;61342;51.442;7.370;2022-08-19T05:14:30;99803.00;;;19.77;78.02
71239;BME280;61342;51.442;7.370;2022-08-19T05:15:31;99804.59;;;19.87;78.08
71239;BME280;61342;51.442;7.370;2022-08-19T05:16:31;99803.41;;;19.90;77.83
71239;BME280;61342;51.442;7.370;2022-08-19T05:17:32;99796.34;;;19.93;77.97
71239;BME280;61342;51.442;7.370;2022-08-19T05:18:32;99806.38;;;20.00;77.63
71239;BME280;61342;51.442;7.370;2022-08-19T05:19:51;99789.47;;;19.98;78.19
71239;BME280;61342;51.442;7.370;2022-08-19T05:21:15;99794.75;;;20.09;77.88
71239;BME280;61342;51.442;7.370;2022-08-19T05:22:34;99800.75;;;20.11;77.87
71239;BME280;61342;51.442;7.370;2022-08-19T05:23:35;99805.22;;;20.12;77.44
71239;BME280;61342;51.442;7.370;2022-08-19T05:24:36;99799.53;;;20.14;77.59
71239;BME280;61342;51.442;7.370;2022-08-19T05:25:42;99802.44;;;20.14;77.63
71239;BME280;61342;51.442;7.370;2022-08-19T05:26:45;99804.59;;;20.14;77.25
71239;BME280;61342;51.442;7.370;2022-08-19T05:27:47;99814.75;;;20.13;77.63
71239;BME280;61342;51.442;7.370;2022-08-19T05:28:47;99805.03;;;20.10;77.33
71239;BME280;61342;51.442;7.370;2022-08-19T05:29:48;99809.34;;;20.09;77.58